createdAt,value
2018-08-30T00:00:13.503Z,4.50
2018-08-30T00:02:40.932Z,4.50
2018-08-30T00:05:08.359Z,4.40
2018-08-30T00:07:35.747Z,4.03
2018-08-30T00:10:03.395Z,4.20
2018-08-30T00:12:30.798Z,3.93
2018-08-30T00:14:58.168Z,4.03
2018-08-30T00:17:25.560Z,4.10
2018-08-30T00:19:52.967Z,4.43
2018-08-30T00:22:20.420Z,4.70
2018-08-30T00:24:47.820Z,4.47
2018-08-30T00:27:15.314Z,4.87
2018-08-30T00:29:42.692Z,4.60
2018-08-30T00:32:10.089Z,5.13
2018-08-30T00:34:37.715Z,5.40
2018-08-30T00:37:05.187Z,4.47
2018-08-30T00:39:32.563Z,4.10
2018-08-30T00:42:00.259Z,4.50
2018-08-30T00:44:27.864Z,4.60
2018-08-30T00:46:55.235Z,5.20
2018-08-30T00:49:22.719Z,4.77
2018-08-30T00:51:50.152Z,4.60
2018-08-30T00:54:17.693Z,4.47
2018-08-30T00:56:45.091Z,4.80
2018-08-30T00:59:12.523Z,4.43
2018-08-30T01:01:39.979Z,4.13
2018-08-30T01:04:07.970Z,4.53
2018-08-30T01:06:35.514Z,4.47
2018-08-30T01:09:03.039Z,4.80
2018-08-30T01:11:30.485Z,4.47
2018-08-30T01:13:57.921Z,4.80
2018-08-30T01:16:25.298Z,4.07
2018-08-30T01:18:52.832Z,4.30
2018-08-30T01:21:20.248Z,4.13
2018-08-30T01:23:47.790Z,4.47
2018-08-30T01:26:15.509Z,4.73
2018-08-30T01:28:42.891Z,3.93
2018-08-30T01:31:10.269Z,3.97
2018-08-30T01:33:37.703Z,4.10
2018-08-30T01:36:05.523Z,4.33
2018-08-30T01:38:32.915Z,4.50
2018-08-30T01:41:00.310Z,3.60
2018-08-30T01:43:27.679Z,4.03
2018-08-30T01:45:55.058Z,4.53
2018-08-30T01:48:22.610Z,4.50
2018-08-30T01:50:49.992Z,4.80
2018-08-30T01:53:17.371Z,4.97
2018-08-30T01:55:44.786Z,5.27
2018-08-30T02:00:50.483Z,4.70
2018-08-30T02:03:18.073Z,3.73
2018-08-30T02:05:45.471Z,3.83
2018-08-30T02:08:12.897Z,4.10
2018-08-30T02:10:40.445Z,4.77
2018-08-30T02:13:07.999Z,5.33
2018-08-30T02:15:35.464Z,5.40
2018-08-30T02:18:02.922Z,4.97
2018-08-30T02:20:30.330Z,5.90
2018-08-30T02:22:57.872Z,5.37
2018-08-30T02:25:25.289Z,5.23
2018-08-30T02:27:52.739Z,5.83
2018-08-30T02:30:20.700Z,4.63
2018-08-30T02:32:48.191Z,4.87
2018-08-30T02:35:15.568Z,4.60
2018-08-30T02:37:43.274Z,4.47
2018-08-30T02:40:10.658Z,4.63
2018-08-30T02:42:38.035Z,4.63
2018-08-30T02:45:05.895Z,4.00
2018-08-30T02:47:33.306Z,3.97
2018-08-30T02:50:00.862Z,4.10
2018-08-30T02:52:28.274Z,3.97
2018-08-30T02:54:55.651Z,4.33
2018-08-30T02:57:23.045Z,4.07
2018-08-30T02:59:50.443Z,4.03
2018-08-30T03:02:17.830Z,3.50
2018-08-30T03:04:45.247Z,3.83
2018-08-30T03:07:13.065Z,4.40
2018-08-30T03:09:40.436Z,4.67
2018-08-30T03:12:07.888Z,5.73
2018-08-30T03:14:35.924Z,4.47
2018-08-30T03:17:03.420Z,3.73
2018-08-30T03:19:30.807Z,3.93
2018-08-30T03:21:58.219Z,4.30
2018-08-30T03:24:25.595Z,4.30
2018-08-30T03:26:52.991Z,4.90
2018-08-30T03:29:20.416Z,5.20
2018-08-30T03:31:47.827Z,4.73
2018-08-30T03:34:15.219Z,4.47
2018-08-30T03:36:42.641Z,4.50
2018-08-30T03:39:10.087Z,3.77
2018-08-30T03:41:37.477Z,4.37
2018-08-30T03:44:04.887Z,4.53
2018-08-30T03:46:32.285Z,4.60
2018-08-30T03:48:59.671Z,4.93
2018-08-30T03:51:27.292Z,5.27
2018-08-30T03:53:54.667Z,4.10
2018-08-30T03:56:22.125Z,4.23
2018-08-30T03:58:50.135Z,4.43
2018-08-30T04:01:17.527Z,4.10
2018-08-30T04:03:44.895Z,4.23
2018-08-30T04:06:12.372Z,4.10
2018-08-30T04:08:39.746Z,3.77
2018-08-30T04:11:07.132Z,4.40
2018-08-30T04:13:34.592Z,4.20
2018-08-30T04:16:01.964Z,3.77
2018-08-30T04:18:29.619Z,4.30
2018-08-30T04:20:57.019Z,4.20
2018-08-30T04:23:24.502Z,4.70
2018-08-30T04:25:51.946Z,4.73
2018-08-30T04:28:19.351Z,4.97
2018-08-30T04:30:47.443Z,4.77
2018-08-30T04:33:14.879Z,4.63
2018-08-30T04:35:42.317Z,4.37
2018-08-30T04:38:09.683Z,4.50
2018-08-30T04:40:37.075Z,4.23
2018-08-30T04:43:04.478Z,4.67
2018-08-30T04:45:32.783Z,4.37
2018-08-30T04:48:00.291Z,4.50
2018-08-30T04:50:27.747Z,4.87
2018-08-30T04:52:55.118Z,4.83
2018-08-30T04:55:22.531Z,4.50
2018-08-30T04:57:49.907Z,3.67
2018-08-30T05:00:18.544Z,4.10
2018-08-30T05:02:45.975Z,4.10
2018-08-30T05:05:13.553Z,3.73
2018-08-30T05:07:40.987Z,4.37
2018-08-30T05:10:08.791Z,4.13
2018-08-30T05:12:36.107Z,4.07
2018-08-30T05:15:03.614Z,3.80
2018-08-30T05:17:32.047Z,4.17
2018-08-30T05:19:59.439Z,4.20
2018-08-30T05:22:26.907Z,4.20
2018-08-30T05:24:54.323Z,4.00
2018-08-30T05:27:21.739Z,4.53
2018-08-30T05:29:49.442Z,4.43
2018-08-30T05:32:16.882Z,4.87
2018-08-30T05:34:44.273Z,4.60
2018-08-30T05:37:11.678Z,4.70
2018-08-30T05:39:39.326Z,4.40
2018-08-30T05:42:06.747Z,4.70
2018-08-30T05:44:34.199Z,5.63
2018-08-30T05:47:01.699Z,5.43
2018-08-30T05:49:29.138Z,4.97
2018-08-30T05:51:56.588Z,4.17
2018-08-30T05:54:24.067Z,4.40
2018-08-30T05:56:51.612Z,4.83
2018-08-30T05:59:19.059Z,4.90
2018-08-30T06:01:46.498Z,4.87
2018-08-30T06:04:14.648Z,4.30
2018-08-30T06:06:42.143Z,4.13
2018-08-30T06:09:09.587Z,4.37
2018-08-30T06:11:36.959Z,4.03
2018-08-30T06:14:04.416Z,3.80
2018-08-30T06:16:31.895Z,3.70
2018-08-30T06:18:59.271Z,3.53
2018-08-30T06:21:26.783Z,3.50
2018-08-30T06:23:54.258Z,3.30
2018-08-30T06:26:21.636Z,3.60
2018-08-30T06:28:49.228Z,3.50
2018-08-30T06:31:16.639Z,3.40
2018-08-30T06:33:44.371Z,3.30
2018-08-30T06:36:11.815Z,3.53
2018-08-30T06:38:39.312Z,3.10
2018-08-30T06:41:06.651Z,3.10
2018-08-30T06:43:34.199Z,3.30
2018-08-30T06:46:01.635Z,3.53
2018-08-30T06:48:29.060Z,3.17
2018-08-30T06:50:56.467Z,2.87
2018-08-30T06:53:23.897Z,3.30
2018-08-30T06:55:51.482Z,2.90
2018-08-30T06:58:18.974Z,3.00
2018-08-30T07:00:46.379Z,2.80
2018-08-30T07:03:13.752Z,2.70
2018-08-30T07:05:41.142Z,3.07
2018-08-30T07:08:08.612Z,2.70
2018-08-30T07:10:35.951Z,2.47
2018-08-30T07:13:03.383Z,2.90
2018-08-30T07:15:30.855Z,2.53
2018-08-30T07:17:58.230Z,2.50
2018-08-30T07:20:25.625Z,2.57
2018-08-30T07:22:53.604Z,2.67
2018-08-30T07:25:20.984Z,2.53
2018-08-30T07:27:49.043Z,2.50
2018-08-30T07:30:16.523Z,2.60
2018-08-30T07:32:44.264Z,2.63
2018-08-30T07:35:11.830Z,3.07
2018-08-30T07:37:39.103Z,2.70
2018-08-30T07:40:06.536Z,2.80
2018-08-30T07:42:34.093Z,2.80
2018-08-30T07:45:01.500Z,2.43
2018-08-30T07:47:29.072Z,2.70
2018-08-30T07:49:56.465Z,2.60
2018-08-30T07:52:23.867Z,2.47
2018-08-30T07:54:51.380Z,2.37
2018-08-30T07:57:18.839Z,2.90
2018-08-30T07:59:46.188Z,2.70
2018-08-30T08:02:13.559Z,3.00
2018-08-30T08:04:41.516Z,2.67
2018-08-30T08:07:09.044Z,2.63
2018-08-30T08:09:36.439Z,2.20
2018-08-30T08:12:03.930Z,2.47
2018-08-30T08:14:31.239Z,2.30
2018-08-30T08:16:58.755Z,2.53
2018-08-30T08:19:26.145Z,2.40
2018-08-30T08:21:53.743Z,2.30
2018-08-30T08:24:21.171Z,2.40
2018-08-30T08:26:48.568Z,2.43
2018-08-30T08:29:16.111Z,2.33
2018-08-30T08:31:43.480Z,2.60
2018-08-30T08:34:10.873Z,2.50
2018-08-30T08:36:38.482Z,2.70
2018-08-30T08:39:06.471Z,2.43
2018-08-30T08:41:33.843Z,2.57
2018-08-30T08:44:01.481Z,2.30
2018-08-30T08:46:28.859Z,2.43
2018-08-30T08:48:56.244Z,2.60
2018-08-30T08:51:23.660Z,2.33
2018-08-30T08:53:51.440Z,2.53
2018-08-30T08:56:18.781Z,2.67
2018-08-30T08:58:46.252Z,2.60
2018-08-30T09:01:13.662Z,2.50
2018-08-30T09:03:41.176Z,2.40
2018-08-30T09:06:08.584Z,2.30
2018-08-30T09:08:36.206Z,2.20
2018-08-30T09:11:03.611Z,2.30
2018-08-30T09:13:31.083Z,2.47
2018-08-30T09:15:58.515Z,2.13
2018-08-30T09:18:25.911Z,2.37
2018-08-30T09:20:53.321Z,2.13
2018-08-30T09:23:20.743Z,2.03
2018-08-30T09:25:48.131Z,2.03
2018-08-30T09:28:15.556Z,2.77
2018-08-30T09:30:43.105Z,2.17
2018-08-30T09:33:10.491Z,2.20
2018-08-30T09:35:38.031Z,2.20
2018-08-30T09:38:05.406Z,2.27
2018-08-30T09:40:32.931Z,2.60
2018-08-30T09:43:00.334Z,2.10
2018-08-30T09:45:27.703Z,2.80
2018-08-30T09:47:55.112Z,2.30
2018-08-30T09:50:22.789Z,2.20
2018-08-30T09:52:50.215Z,2.10
2018-08-30T09:55:17.593Z,2.30
2018-08-30T09:57:45.147Z,2.30
2018-08-30T10:00:14.510Z,2.30
2018-08-30T10:02:47.275Z,2.03
2018-08-30T10:05:14.894Z,2.27
2018-08-30T10:07:42.299Z,2.33
2018-08-30T10:10:09.707Z,2.20
2018-08-30T10:12:37.114Z,2.00
2018-08-30T10:15:04.683Z,2.07
2018-08-30T10:17:32.083Z,2.00
2018-08-30T10:19:59.603Z,2.40
2018-08-30T10:22:27.148Z,2.30
2018-08-30T10:24:54.545Z,2.20
2018-08-30T10:27:21.979Z,2.10
2018-08-30T10:29:49.439Z,2.30
2018-08-30T10:32:16.919Z,2.30
2018-08-30T10:34:44.354Z,2.63
2018-08-30T10:37:12.171Z,2.17
2018-08-30T10:39:39.567Z,2.30
2018-08-30T10:42:06.970Z,2.00
2018-08-30T10:44:34.480Z,2.50
2018-08-30T10:47:01.982Z,2.27
2018-08-30T10:49:29.396Z,2.50
2018-08-30T10:51:56.807Z,2.43
2018-08-30T10:54:24.243Z,2.53
2018-08-30T10:56:51.626Z,2.50
2018-08-30T10:59:19.223Z,2.60
2018-08-30T11:01:46.746Z,2.53
2018-08-30T11:04:14.544Z,2.20
2018-08-30T11:06:42.914Z,1.97
2018-08-30T11:09:10.379Z,2.40
2018-08-30T11:11:38.129Z,2.23
2018-08-30T11:14:05.559Z,2.20
2018-08-30T11:16:32.986Z,2.67
2018-08-30T11:19:00.378Z,2.17
2018-08-30T11:21:27.953Z,2.00
2018-08-30T11:23:55.365Z,2.40
2018-08-30T11:26:22.737Z,2.67
2018-08-30T11:28:50.332Z,2.33
2018-08-30T11:31:17.790Z,2.37
2018-08-30T11:33:45.199Z,2.63
2018-08-30T11:36:12.578Z,2.47
2018-08-30T11:38:40.171Z,2.33
2018-08-30T11:41:08.240Z,2.30
2018-08-30T11:43:35.627Z,2.10
2018-08-30T11:46:03.032Z,2.10
2018-08-30T11:48:30.599Z,2.20
2018-08-30T11:50:58.393Z,2.37
2018-08-30T11:53:25.812Z,2.33
2018-08-30T11:55:53.276Z,2.50
2018-08-30T11:58:20.734Z,2.10
2018-08-30T12:00:48.179Z,2.10
2018-08-30T12:03:15.594Z,2.27
2018-08-30T12:05:43.875Z,2.10
2018-08-30T12:08:11.479Z,1.97
2018-08-30T12:10:39.249Z,2.07
2018-08-30T12:13:06.643Z,2.03
2018-08-30T12:15:34.047Z,2.20
2018-08-30T12:18:01.669Z,2.00
2018-08-30T12:20:29.344Z,1.97
2018-08-30T12:22:56.743Z,2.20
2018-08-30T12:25:24.203Z,2.07
2018-08-30T12:27:51.589Z,1.80
2018-08-30T12:30:18.999Z,1.90
2018-08-30T12:32:46.600Z,2.00
2018-08-30T12:35:14.093Z,1.87
2018-08-30T12:37:41.467Z,2.00
2018-08-30T12:40:08.887Z,1.90
2018-08-30T12:42:36.284Z,1.70
2018-08-30T12:45:03.727Z,2.07
2018-08-30T12:47:31.374Z,2.10
2018-08-30T12:49:58.864Z,2.27
2018-08-30T12:52:26.361Z,2.30
2018-08-30T12:54:53.862Z,2.23
2018-08-30T12:57:21.496Z,2.50
2018-08-30T12:59:49.017Z,2.30
2018-08-30T13:02:16.511Z,2.10
2018-08-30T13:04:44.034Z,2.10
2018-08-30T13:07:11.574Z,2.00
2018-08-30T13:09:38.934Z,2.20
2018-08-30T13:12:06.812Z,2.10
2018-08-30T13:14:34.388Z,1.97
2018-08-30T13:17:01.690Z,2.30
2018-08-30T13:19:29.369Z,1.90
2018-08-30T13:21:56.639Z,2.43
2018-08-30T13:24:24.017Z,1.93
2018-08-30T13:26:51.497Z,1.93
2018-08-30T13:29:19.126Z,2.00
2018-08-30T13:31:46.470Z,2.03
2018-08-30T13:34:14.992Z,2.10
2018-08-30T13:36:42.522Z,1.83
2018-08-30T13:39:11.911Z,2.30
2018-08-30T13:41:39.558Z,2.13
2018-08-30T13:44:08.988Z,2.10
2018-08-30T13:46:36.442Z,1.97
2018-08-30T13:49:03.995Z,2.07
2018-08-30T13:51:31.430Z,2.00
2018-08-30T13:53:59.204Z,2.37
2018-08-30T13:56:26.769Z,1.83
2018-08-30T13:58:54.264Z,1.90
2018-08-30T14:01:22.011Z,1.80
2018-08-30T14:03:48.989Z,2.00
2018-08-30T14:06:16.353Z,1.80
2018-08-30T14:08:43.861Z,2.07
2018-08-30T14:11:11.385Z,1.87
2018-08-30T14:13:38.716Z,1.87
2018-08-30T14:16:06.180Z,1.90
2018-08-30T14:18:33.877Z,2.07
2018-08-30T14:21:01.479Z,2.00
2018-08-30T14:23:29.553Z,1.93
2018-08-30T14:25:57.227Z,1.80
2018-08-30T14:28:24.634Z,2.10
2018-08-30T14:30:52.498Z,1.80
2018-08-30T14:33:20.577Z,2.07
2018-08-30T14:35:47.991Z,2.00
2018-08-30T14:38:15.724Z,2.00
2018-08-30T14:40:43.142Z,2.13
2018-08-30T14:43:10.743Z,1.70
2018-08-30T14:45:38.289Z,2.10
2018-08-30T14:48:06.438Z,1.70
2018-08-30T14:50:33.815Z,2.10
2018-08-30T14:53:01.257Z,2.07
2018-08-30T14:55:28.659Z,2.00
2018-08-30T14:57:56.036Z,2.03
2018-08-30T15:00:23.520Z,2.00
2018-08-30T15:02:51.222Z,2.30
2018-08-30T15:05:18.601Z,1.90
2018-08-30T15:07:46.343Z,2.10
2018-08-30T15:10:13.741Z,2.50
2018-08-30T15:12:41.263Z,2.03
2018-08-30T15:15:08.695Z,2.50
2018-08-30T15:17:36.681Z,2.40
2018-08-30T15:20:04.066Z,2.17
2018-08-30T15:22:31.695Z,2.20
2018-08-30T15:24:59.090Z,2.03
2018-08-30T15:27:26.571Z,2.20
2018-08-30T15:29:53.999Z,2.07
2018-08-30T15:32:21.376Z,2.13
2018-08-30T15:34:48.938Z,2.03
2018-08-30T15:37:16.427Z,2.00
2018-08-30T15:39:43.857Z,1.97
2018-08-30T15:42:11.894Z,2.37
2018-08-30T15:44:39.107Z,2.07
2018-08-30T15:47:06.718Z,2.20
2018-08-30T15:49:34.095Z,2.27
2018-08-30T15:52:01.638Z,2.33
2018-08-30T15:54:28.956Z,2.20
2018-08-30T15:56:56.371Z,2.20
2018-08-30T15:59:23.884Z,1.73
2018-08-30T16:01:51.278Z,1.90
2018-08-30T16:04:18.672Z,1.97
2018-08-30T16:06:46.132Z,2.20
2018-08-30T16:09:13.650Z,2.00
2018-08-30T16:11:41.407Z,2.23
2018-08-30T16:14:08.833Z,1.87
2018-08-30T16:16:36.218Z,1.83
2018-08-30T16:19:03.877Z,2.10
2018-08-30T16:21:31.850Z,1.90
2018-08-30T16:23:59.247Z,2.30
2018-08-30T16:26:26.637Z,2.10
2018-08-30T16:28:54.570Z,1.80
2018-08-30T16:31:21.974Z,2.20
2018-08-30T16:33:49.488Z,1.80
2018-08-30T16:36:16.936Z,1.67
2018-08-30T16:38:44.315Z,2.13
2018-08-30T16:41:11.727Z,1.97
2018-08-30T16:43:39.217Z,2.00
2018-08-30T16:46:06.570Z,2.13
2018-08-30T16:48:34.037Z,1.90
2018-08-30T16:51:01.397Z,1.80
2018-08-30T16:53:28.811Z,2.10
2018-08-30T16:55:56.263Z,2.03
2018-08-30T16:58:23.671Z,1.90
2018-08-30T17:00:51.165Z,1.73
2018-08-30T17:03:19.014Z,2.20
2018-08-30T17:05:46.459Z,1.93
2018-08-30T17:08:13.844Z,2.17
2018-08-30T17:10:41.362Z,2.00
2018-08-30T17:13:08.715Z,2.33
2018-08-30T17:15:36.320Z,1.80
2018-08-30T17:18:04.527Z,2.10
2018-08-30T17:20:34.352Z,2.03
2018-08-30T17:23:01.740Z,1.90
2018-08-30T17:25:29.306Z,2.20
2018-08-30T17:27:56.683Z,2.20
2018-08-30T17:30:24.055Z,2.80
2018-08-30T17:32:51.474Z,3.33
2018-08-30T17:35:19.078Z,2.87
2018-08-30T17:37:46.544Z,4.00
2018-08-30T17:40:14.583Z,2.87
2018-08-30T17:42:42.115Z,2.40
2018-08-30T17:45:09.851Z,1.93
2018-08-30T17:47:38.494Z,2.10
2018-08-30T17:50:06.548Z,2.10
2018-08-30T17:52:34.123Z,2.30
2018-08-30T17:55:02.040Z,2.13
2018-08-30T17:57:29.521Z,2.07
2018-08-30T17:59:57.146Z,1.97
2018-08-30T18:02:24.578Z,2.10
2018-08-30T18:04:51.999Z,1.97
2018-08-30T18:07:19.568Z,2.07
2018-08-30T18:09:47.006Z,2.10
2018-08-30T18:12:15.187Z,2.10
2018-08-30T18:14:42.633Z,2.33
2018-08-30T18:17:10.085Z,2.10
2018-08-30T18:19:37.519Z,2.20
2018-08-30T18:22:04.939Z,2.40
2018-08-30T18:24:32.324Z,2.23
2018-08-30T18:26:59.745Z,2.20
2018-08-30T18:29:27.235Z,2.10
2018-08-30T18:31:54.606Z,2.33
2018-08-30T18:34:22.031Z,2.37
2018-08-30T18:36:49.426Z,1.87
2018-08-30T18:39:16.837Z,2.23
2018-08-30T18:41:44.312Z,2.00
2018-08-30T18:44:11.727Z,2.33
2018-08-30T18:46:39.183Z,2.00
2018-08-30T18:49:06.811Z,2.20
2018-08-30T18:51:34.189Z,2.20
2018-08-30T18:54:02.278Z,2.47
2018-08-30T18:56:29.859Z,2.20
2018-08-30T18:58:57.742Z,2.63
2018-08-30T19:01:25.243Z,2.30
2018-08-30T19:03:52.671Z,2.37
2018-08-30T19:06:20.375Z,2.60
2018-08-30T19:08:47.831Z,2.37
2018-08-30T19:11:15.290Z,2.00
2018-08-30T19:13:42.834Z,2.50
2018-08-30T19:16:15.467Z,2.57
2018-08-30T19:18:48.095Z,2.23
2018-08-30T19:21:16.590Z,2.43
2018-08-30T19:23:43.961Z,2.67
2018-08-30T19:26:11.619Z,2.23
2018-08-30T19:28:39.575Z,2.47
2018-08-30T19:31:07.031Z,2.73
2018-08-30T19:33:34.524Z,2.47
2018-08-30T19:36:07.263Z,2.77
2018-08-30T19:38:34.700Z,2.40
2018-08-30T19:41:07.492Z,2.73
2018-08-30T19:43:34.871Z,2.57
2018-08-30T19:46:02.332Z,2.60
2018-08-30T19:48:30.436Z,2.50
2018-08-30T19:50:57.848Z,2.67
2018-08-30T19:53:25.323Z,2.40
2018-08-30T19:55:52.721Z,2.50
2018-08-30T19:58:20.265Z,2.50
2018-08-30T20:00:47.682Z,2.67
2018-08-30T20:03:15.726Z,2.80
2018-08-30T20:05:43.210Z,2.40
2018-08-30T20:08:10.566Z,2.70
2018-08-30T20:10:37.988Z,2.33
2018-08-30T20:13:05.387Z,2.43
2018-08-30T20:15:32.811Z,2.73
2018-08-30T20:18:00.517Z,2.30
2018-08-30T20:20:27.903Z,2.50
2018-08-30T20:22:55.315Z,2.50
2018-08-30T20:25:22.747Z,2.70
2018-08-30T20:27:50.188Z,3.03
2018-08-30T20:30:17.782Z,2.70
2018-08-30T20:32:45.423Z,2.40
2018-08-30T20:35:12.996Z,2.67
2018-08-30T20:37:40.371Z,2.53
2018-08-30T20:40:08.039Z,3.00
2018-08-30T20:42:35.418Z,3.00
2018-08-30T20:45:02.823Z,2.70
2018-08-30T20:47:30.413Z,2.50
2018-08-30T20:49:57.863Z,2.50
2018-08-30T20:52:25.315Z,2.60
2018-08-30T20:54:52.820Z,2.83
2018-08-30T20:57:20.191Z,2.60
2018-08-30T20:59:47.623Z,3.07
2018-08-30T21:02:15.055Z,3.00
2018-08-30T21:04:42.463Z,2.90
2018-08-30T21:07:09.843Z,2.67
2018-08-30T21:09:37.293Z,2.87
2018-08-30T21:12:04.675Z,2.90
2018-08-30T21:14:32.116Z,3.00
2018-08-30T21:16:59.523Z,3.20
2018-08-30T21:19:27.088Z,2.67
2018-08-30T21:21:54.524Z,3.30
2018-08-30T21:24:21.980Z,3.00
2018-08-30T21:26:49.383Z,2.80
2018-08-30T21:29:16.800Z,2.80
2018-08-30T21:31:44.360Z,2.83
2018-08-30T21:34:11.776Z,2.90
2018-08-30T21:36:39.156Z,2.80
2018-08-30T21:39:07.335Z,3.17
2018-08-30T21:41:34.727Z,4.00
2018-08-30T21:44:02.107Z,3.10
2018-08-30T21:46:29.599Z,3.30
2018-08-30T21:48:57.044Z,3.50
2018-08-30T21:51:24.732Z,3.17
2018-08-30T21:53:52.128Z,3.00
2018-08-30T21:56:19.655Z,3.40
2018-08-30T21:58:47.175Z,3.20
2018-08-30T22:01:14.859Z,3.23
2018-08-30T22:03:42.303Z,3.50
2018-08-30T22:06:09.675Z,3.30
2018-08-30T22:08:37.089Z,3.10
2018-08-30T22:11:04.471Z,3.60
2018-08-30T22:13:31.903Z,3.40
2018-08-30T22:15:59.574Z,3.60
2018-08-30T22:18:27.003Z,3.43
2018-08-30T22:20:54.831Z,3.27
2018-08-30T22:23:22.275Z,3.40
2018-08-30T22:25:49.664Z,3.33
2018-08-30T22:28:17.063Z,3.60
2018-08-30T22:30:44.628Z,3.27
2018-08-30T22:33:12.050Z,3.70
2018-08-30T22:35:39.426Z,3.07
2018-08-30T22:38:06.828Z,3.47
2018-08-30T22:40:34.422Z,3.50
2018-08-30T22:43:01.969Z,3.37
2018-08-30T22:45:29.987Z,3.80
2018-08-30T22:47:57.959Z,3.30
2018-08-30T22:50:25.372Z,3.53
2018-08-30T22:52:52.963Z,3.80
2018-08-30T22:55:20.331Z,3.20
2018-08-30T22:57:47.817Z,3.80
2018-08-30T23:00:15.700Z,3.70
2018-08-30T23:02:43.072Z,3.13
2018-08-30T23:05:10.528Z,2.83
2018-08-30T23:07:37.935Z,3.50
2018-08-30T23:10:05.445Z,3.50
2018-08-30T23:12:32.843Z,2.90
2018-08-30T23:15:00.386Z,3.30
2018-08-30T23:17:28.115Z,3.63
2018-08-30T23:19:55.642Z,3.40
2018-08-30T23:22:23.061Z,3.57
2018-08-30T23:24:50.577Z,3.40
2018-08-30T23:27:17.957Z,3.33
2018-08-30T23:29:45.387Z,3.27
2018-08-30T23:32:12.763Z,3.60
2018-08-30T23:34:40.323Z,3.60
2018-08-30T23:37:07.862Z,3.40
2018-08-30T23:39:35.239Z,3.60
2018-08-30T23:42:02.687Z,3.83
2018-08-30T23:44:30.098Z,3.50
2018-08-30T23:46:57.475Z,3.60
2018-08-30T23:49:24.859Z,3.87
2018-08-30T23:51:52.295Z,3.43
2018-08-30T23:54:19.970Z,3.43
2018-08-30T23:56:47.347Z,4.20
2018-08-30T23:59:20.452Z,3.33
